Terminal Aerodrome Forecast
Issued by NWS

Home | Current Version | Previous Version | Text Only | Print | Product List | Glossary On
Versions: 1 2 3 4 5 6 7 8 9 10 11 12 13 14 15 16
000
FTUS45 KABQ 310500
TAFFMN
TAF
KFMN 310534Z 3106/0106 36005KT P6SM SCT100
     FM310800 06010KT P6SM VCSH BKN080
     FM311100 09010KT P6SM BKN080
     FM312000 27015G25KT P6SM VCSH BKN080
     FM312200 27015G25KT P6SM VCTS BKN080CB
     FM010100 33015G25KT P6SM VCSH OVC080=

USA.gov is the U.S. government's official web portal to all federal, state and local government web resources and services.